sensor_id;sensor_type;location;lat;lon;timestamp;P1;durP1;ratioP1;P2;durP2;ratioP2
76846;SDS011;65813;49.546;8.644;2023-05-02T00:01:40;4.80;;;2.97;;
76846;SDS011;65813;49.546;8.644;2023-05-02T00:05:40;5.17;;;3.00;;
76846;SDS011;65813;49.546;8.644;2023-05-02T00:09:41;4.18;;;2.80;;
76846;SDS011;65813;49.546;8.644;2023-05-02T00:13:41;4.50;;;3.17;;
76846;SDS011;65813;49.546;8.644;2023-05-02T00:17:43;5.25;;;2.95;;
76846;SDS011;65813;49.546;8.644;2023-05-02T00:21:45;5.43;;;3.33;;
76846;SDS011;65813;49.546;8.644;2023-05-02T00:25:47;4.95;;;3.30;;
76846;SDS011;65813;49.546;8.644;2023-05-02T00:29:47;4.23;;;2.77;;
76846;SDS011;65813;49.546;8.644;2023-05-02T00:33:47;5.30;;;3.20;;
76846;SDS011;65813;49.546;8.644;2023-05-02T00:37:48;5.27;;;3.17;;
76846;SDS011;65813;49.546;8.644;2023-05-02T00:41:48;4.77;;;3.07;;
76846;SDS011;65813;49.546;8.644;2023-05-02T00:45:48;5.07;;;3.22;;
76846;SDS011;65813;49.546;8.644;2023-05-02T00:49:49;5.78;;;3.38;;
76846;SDS011;65813;49.546;8.644;2023-05-02T00:53:50;5.33;;;3.70;;
76846;SDS011;65813;49.546;8.644;2023-05-02T00:57:51;6.18;;;3.17;;
76846;SDS011;65813;49.546;8.644;2023-05-02T01:15:15;4.40;;;2.88;;
76846;SDS011;65813;49.546;8.644;2023-05-02T01:19:24;3.80;;;2.50;;
76846;SDS011;65813;49.546;8.644;2023-05-02T01:31:52;4.78;;;2.72;;
76846;SDS011;65813;49.546;8.644;2023-05-02T01:35:55;4.60;;;3.03;;
76846;SDS011;65813;49.546;8.644;2023-05-02T01:39:57;4.20;;;2.72;;
76846;SDS011;65813;49.546;8.644;2023-05-02T01:44:00;4.20;;;2.83;;
76846;SDS011;65813;49.546;8.644;2023-05-02T01:48:02;5.00;;;3.03;;
76846;SDS011;65813;49.546;8.644;2023-05-02T01:52:06;4.70;;;2.58;;
76846;SDS011;65813;49.546;8.644;2023-05-02T01:56:10;4.38;;;3.08;;
76846;SDS011;65813;49.546;8.644;2023-05-02T02:00:11;4.30;;;2.80;;
76846;SDS011;65813;49.546;8.644;2023-05-02T02:04:15;4.55;;;2.70;;
76846;SDS011;65813;49.546;8.644;2023-05-02T02:08:18;4.85;;;3.03;;
76846;SDS011;65813;49.546;8.644;2023-05-02T02:16:39;4.85;;;3.40;;
76846;SDS011;65813;49.546;8.644;2023-05-02T02:20:42;4.95;;;2.72;;
76846;SDS011;65813;49.546;8.644;2023-05-02T02:24:44;5.10;;;3.30;;
76846;SDS011;65813;49.546;8.644;2023-05-02T02:28:46;4.40;;;2.95;;
76846;SDS011;65813;49.546;8.644;2023-05-02T02:32:47;4.63;;;3.00;;
76846;SDS011;65813;49.546;8.644;2023-05-02T02:36:52;5.60;;;3.20;;
76846;SDS011;65813;49.546;8.644;2023-05-02T02:41:05;5.68;;;3.13;;
76846;SDS011;65813;49.546;8.644;2023-05-02T02:49:47;5.15;;;3.00;;
76846;SDS011;65813;49.546;8.644;2023-05-02T02:54:00;4.93;;;2.90;;
76846;SDS011;65813;49.546;8.644;2023-05-02T02:58:08;4.75;;;2.90;;
76846;SDS011;65813;49.546;8.644;2023-05-02T03:02:14;5.47;;;3.40;;
76846;SDS011;65813;49.546;8.644;2023-05-02T03:06:17;4.93;;;3.50;;
76846;SDS011;65813;49.546;8.644;2023-05-02T03:10:18;5.10;;;3.20;;
76846;SDS011;65813;49.546;8.644;2023-05-02T03:14:18;6.15;;;3.88;;
76846;SDS011;65813;49.546;8.644;2023-05-02T03:18:18;4.90;;;3.20;;
76846;SDS011;65813;49.546;8.644;2023-05-02T03:22:19;5.27;;;3.40;;
76846;SDS011;65813;49.546;8.644;2023-05-02T03:26:19;5.50;;;3.50;;
76846;SDS011;65813;49.546;8.644;2023-05-02T03:30:20;5.00;;;3.60;;
76846;SDS011;65813;49.546;8.644;2023-05-02T03:34:20;5.20;;;3.50;;
76846;SDS011;65813;49.546;8.644;2023-05-02T03:38:21;5.32;;;3.35;;
76846;SDS011;65813;49.546;8.644;2023-05-02T03:42:21;6.18;;;3.42;;
76846;SDS011;65813;49.546;8.644;2023-05-02T03:46:22;4.77;;;3.13;;
76846;SDS011;65813;49.546;8.644;2023-05-02T03:50:22;5.80;;;3.53;;
76846;SDS011;65813;49.546;8.644;2023-05-02T03:54:22;5.23;;;3.30;;
76846;SDS011;65813;49.546;8.644;2023-05-02T03:58:23;6.50;;;3.63;;
76846;SDS011;65813;49.546;8.644;2023-05-02T04:02:24;6.28;;;3.17;;
76846;SDS011;65813;49.546;8.644;2023-05-02T04:06:25;5.75;;;3.45;;
76846;SDS011;65813;49.546;8.644;2023-05-02T04:10:25;5.30;;;3.03;;
76846;SDS011;65813;49.546;8.644;2023-05-02T04:14:25;6.57;;;3.50;;
76846;SDS011;65813;49.546;8.644;2023-05-02T04:18:26;5.78;;;3.47;;
76846;SDS011;65813;49.546;8.644;2023-05-02T04:22:26;6.57;;;3.27;;
76846;SDS011;65813;49.546;8.644;2023-05-02T04:26:26;6.57;;;4.07;;
76846;SDS011;65813;49.546;8.644;2023-05-02T04:30:27;6.00;;;3.63;;
76846;SDS011;65813;49.546;8.644;2023-05-02T04:34:27;6.97;;;3.72;;
76846;SDS011;65813;49.546;8.644;2023-05-02T04:38:28;6.00;;;4.20;;
76846;SDS011;65813;49.546;8.644;2023-05-02T04:42:28;6.43;;;4.13;;
76846;SDS011;65813;49.546;8.644;2023-05-02T04:46:28;6.70;;;4.17;;
76846;SDS011;65813;49.546;8.644;2023-05-02T04:50:29;6.40;;;4.00;;
76846;SDS011;65813;49.546;8.644;2023-05-02T04:54:31;6.30;;;4.07;;
76846;SDS011;65813;49.546;8.644;2023-05-02T04:58:32;9.05;;;4.65;;
76846;SDS011;65813;49.546;8.644;2023-05-02T05:02:34;6.60;;;4.38;;
76846;SDS011;65813;49.546;8.644;2023-05-02T05:06:34;6.23;;;4.07;;
76846;SDS011;65813;49.546;8.644;2023-05-02T05:10:34;6.78;;;5.07;;
76846;SDS011;65813;49.546;8.644;2023-05-02T05:14:35;7.05;;;4.13;;
76846;SDS011;65813;49.546;8.644;2023-05-02T05:18:35;6.40;;;4.10;;
76846;SDS011;65813;49.546;8.644;2023-05-02T05:22:39;7.50;;;5.40;;
76846;SDS011;65813;49.546;8.644;2023-05-02T05:26:40;5.80;;;4.05;;
76846;SDS011;65813;49.546;8.644;2023-05-02T05:30:40;10.55;;;5.28;;
76846;SDS011;65813;49.546;8.644;2023-05-02T05:34:41;7.97;;;5.70;;
76846;SDS011;65813;49.546;8.644;2023-05-02T05:38:41;7.95;;;5.07;;
76846;SDS011;65813;49.546;8.644;2023-05-02T05:42:42;8.52;;;5.70;;
76846;SDS011;65813;49.546;8.644;2023-05-02T05:46:42;11.27;;;6.33;;
76846;SDS011;65813;49.546;8.644;2023-05-02T05:50:42;18.07;;;11.70;;
76846;SDS011;65813;49.546;8.644;2023-05-02T05:54:45;19.00;;;10.70;;
76846;SDS011;65813;49.546;8.644;2023-05-02T05:58:46;14.68;;;9.63;;
76846;SDS011;65813;49.546;8.644;2023-05-02T06:02:46;13.47;;;9.33;;
76846;SDS011;65813;49.546;8.644;2023-05-02T06:06:46;13.93;;;9.27;;
76846;SDS011;65813;49.546;8.644;2023-05-02T06:10:46;15.17;;;9.50;;
76846;SDS011;65813;49.546;8.644;2023-05-02T06:14:47;14.30;;;9.20;;
76846;SDS011;65813;49.546;8.644;2023-05-02T06:18:49;17.70;;;9.90;;
76846;SDS011;65813;49.546;8.644;2023-05-02T06:22:50;15.43;;;9.43;;
76846;SDS011;65813;49.546;8.644;2023-05-02T06:26:50;15.70;;;10.17;;
76846;SDS011;65813;49.546;8.644;2023-05-02T06:30:58;38.70;;;24.30;;
76846;SDS011;65813;49.546;8.644;2023-05-02T06:35:00;17.15;;;10.98;;
76846;SDS011;65813;49.546;8.644;2023-05-02T06:39:00;24.00;;;15.77;;
76846;SDS011;65813;49.546;8.644;2023-05-02T06:43:00;22.90;;;13.77;;
76846;SDS011;65813;49.546;8.644;2023-05-02T06:47:02;21.17;;;12.50;;
76846;SDS011;65813;49.546;8.644;2023-05-02T06:51:03;39.35;;;26.33;;
76846;SDS011;65813;49.546;8.644;2023-05-02T06:55:03;47.67;;;27.23;;
76846;SDS011;65813;49.546;8.644;2023-05-02T06:59:04;29.55;;;18.02;;
76846;SDS011;65813;49.546;8.644;2023-05-02T07:03:04;22.50;;;13.80;;
76846;SDS011;65813;49.546;8.644;2023-05-02T07:07:05;25.43;;;14.57;;
76846;SDS011;65813;49.546;8.644;2023-05-02T07:11:05;24.50;;;14.43;;
76846;SDS011;65813;49.546;8.644;2023-05-02T07:15:06;23.95;;;14.63;;
76846;SDS011;65813;49.546;8.644;2023-05-02T07:19:07;25.20;;;15.40;;
76846;SDS011;65813;49.546;8.644;2023-05-02T07:23:07;28.13;;;15.83;;
76846;SDS011;65813;49.546;8.644;2023-05-02T07:27:11;27.50;;;15.73;;
76846;SDS011;65813;49.546;8.644;2023-05-02T07:31:12;26.63;;;15.68;;
76846;SDS011;65813;49.546;8.644;2023-05-02T07:35:12;28.23;;;16.43;;
76846;SDS011;65813;49.546;8.644;2023-05-02T07:39:13;31.40;;;18.87;;
76846;SDS011;65813;49.546;8.644;2023-05-02T07:43:13;31.43;;;17.23;;
76846;SDS011;65813;49.546;8.644;2023-05-02T07:47:14;34.58;;;19.23;;
76846;SDS011;65813;49.546;8.644;2023-05-02T07:51:15;33.77;;;18.03;;
76846;SDS011;65813;49.546;8.644;2023-05-02T07:55:15;39.20;;;19.83;;
76846;SDS011;65813;49.546;8.644;2023-05-02T07:59:16;36.37;;;20.27;;
76846;SDS011;65813;49.546;8.644;2023-05-02T08:03:16;36.00;;;20.10;;
76846;SDS011;65813;49.546;8.644;2023-05-02T08:07:16;38.37;;;20.77;;
76846;SDS011;65813;49.546;8.644;2023-05-02T08:11:17;34.93;;;19.10;;
76846;SDS011;65813;49.546;8.644;2023-05-02T08:15:17;38.03;;;18.67;;
76846;SDS011;65813;49.546;8.644;2023-05-02T08:19:17;33.20;;;17.23;;
76846;SDS011;65813;49.546;8.644;2023-05-02T08:23:18;36.47;;;17.77;;
76846;SDS011;65813;49.546;8.644;2023-05-02T08:27:18;32.23;;;16.60;;
76846;SDS011;65813;49.546;8.644;2023-05-02T08:31:18;32.00;;;16.90;;
76846;SDS011;65813;49.546;8.644;2023-05-02T08:35:19;30.15;;;15.63;;
76846;SDS011;65813;49.546;8.644;2023-05-02T08:39:20;28.63;;;15.33;;
76846;SDS011;65813;49.546;8.644;2023-05-02T08:43:20;32.20;;;16.43;;
76846;SDS011;65813;49.546;8.644;2023-05-02T08:47:20;27.92;;;14.65;;
76846;SDS011;65813;49.546;8.644;2023-05-02T08:51:22;29.40;;;13.98;;
76846;SDS011;65813;49.546;8.644;2023-05-02T08:55:23;28.25;;;15.07;;
76846;SDS011;65813;49.546;8.644;2023-05-02T08:59:26;30.77;;;15.77;;
76846;SDS011;65813;49.546;8.644;2023-05-02T09:07:27;28.40;;;15.37;;
76846;SDS011;65813;49.546;8.644;2023-05-02T09:11:27;35.43;;;16.73;;
76846;SDS011;65813;49.546;8.644;2023-05-02T09:15:28;30.50;;;15.70;;
76846;SDS011;65813;49.546;8.644;2023-05-02T09:19:28;27.75;;;14.45;;
76846;SDS011;65813;49.546;8.644;2023-05-02T09:27:55;28.70;;;14.80;;
76846;SDS011;65813;49.546;8.644;2023-05-02T09:31:55;28.52;;;14.63;;
76846;SDS011;65813;49.546;8.644;2023-05-02T09:35:56;27.10;;;13.73;;
76846;SDS011;65813;49.546;8.644;2023-05-02T09:40:05;26.70;;;14.03;;
76846;SDS011;65813;49.546;8.644;2023-05-02T09:44:08;27.00;;;13.82;;
76846;SDS011;65813;49.546;8.644;2023-05-02T09:48:10;22.92;;;12.25;;
76846;SDS011;65813;49.546;8.644;2023-05-02T09:52:13;21.98;;;11.48;;
76846;SDS011;65813;49.546;8.644;2023-05-02T09:56:15;21.27;;;10.70;;
76846;SDS011;65813;49.546;8.644;2023-05-02T10:00:17;17.27;;;9.55;;
76846;SDS011;65813;49.546;8.644;2023-05-02T10:04:19;18.70;;;9.23;;
76846;SDS011;65813;49.546;8.644;2023-05-02T10:08:20;20.27;;;10.35;;
76846;SDS011;65813;49.546;8.644;2023-05-02T10:12:21;18.23;;;8.77;;
76846;SDS011;65813;49.546;8.644;2023-05-02T10:16:26;19.77;;;9.85;;
76846;SDS011;65813;49.546;8.644;2023-05-02T10:20:33;19.55;;;10.65;;
76846;SDS011;65813;49.546;8.644;2023-05-02T10:24:34;17.77;;;9.65;;
76846;SDS011;65813;49.546;8.644;2023-05-02T10:28:37;18.63;;;9.10;;
76846;SDS011;65813;49.546;8.644;2023-05-02T10:32:38;21.05;;;9.65;;
76846;SDS011;65813;49.546;8.644;2023-05-02T10:36:39;19.63;;;10.23;;
76846;SDS011;65813;49.546;8.644;2023-05-02T10:40:39;16.75;;;8.98;;
76846;SDS011;65813;49.546;8.644;2023-05-02T10:44:42;19.17;;;9.25;;
76846;SDS011;65813;49.546;8.644;2023-05-02T10:48:43;21.52;;;8.70;;
76846;SDS011;65813;49.546;8.644;2023-05-02T10:52:59;17.33;;;8.65;;
76846;SDS011;65813;49.546;8.644;2023-05-02T10:57:23;13.85;;;7.63;;
76846;SDS011;65813;49.546;8.644;2023-05-02T11:05:24;14.10;;;7.17;;
76846;SDS011;65813;49.546;8.644;2023-05-02T11:09:29;14.52;;;7.65;;
76846;SDS011;65813;49.546;8.644;2023-05-02T11:13:50;15.65;;;7.78;;
76846;SDS011;65813;49.546;8.644;2023-05-02T11:18:12;12.85;;;6.55;;
76846;SDS011;65813;49.546;8.644;2023-05-02T11:26:25;16.50;;;8.82;;
76846;SDS011;65813;49.546;8.644;2023-05-02T11:30:38;14.48;;;6.85;;
76846;SDS011;65813;49.546;8.644;2023-05-02T11:34:42;14.38;;;6.30;;
76846;SDS011;65813;49.546;8.644;2023-05-02T11:38:43;13.95;;;6.05;;
76846;SDS011;65813;49.546;8.644;2023-05-02T11:42:43;14.85;;;5.78;;
76846;SDS011;65813;49.546;8.644;2023-05-02T11:46:44;11.43;;;6.03;;
76846;SDS011;65813;49.546;8.644;2023-05-02T11:50:45;11.73;;;5.65;;
76846;SDS011;65813;49.546;8.644;2023-05-02T11:54:47;11.50;;;5.82;;
76846;SDS011;65813;49.546;8.644;2023-05-02T11:58:48;11.55;;;6.40;;
76846;SDS011;65813;49.546;8.644;2023-05-02T12:03:00;13.07;;;6.90;;
76846;SDS011;65813;49.546;8.644;2023-05-02T12:07:01;13.30;;;6.90;;
76846;SDS011;65813;49.546;8.644;2023-05-02T12:11:01;9.53;;;4.87;;
76846;SDS011;65813;49.546;8.644;2023-05-02T12:15:05;10.57;;;5.27;;
76846;SDS011;65813;49.546;8.644;2023-05-02T12:19:07;8.52;;;4.65;;
76846;SDS011;65813;49.546;8.644;2023-05-02T12:23:07;11.60;;;5.22;;
76846;SDS011;65813;49.546;8.644;2023-05-02T12:27:12;12.07;;;5.80;;
76846;SDS011;65813;49.546;8.644;2023-05-02T12:35:20;10.88;;;5.72;;
76846;SDS011;65813;49.546;8.644;2023-05-02T12:39:32;10.75;;;5.03;;
76846;SDS011;65813;49.546;8.644;2023-05-02T12:43:44;11.82;;;5.55;;
76846;SDS011;65813;49.546;8.644;2023-05-02T12:47:45;10.25;;;5.32;;
76846;SDS011;65813;49.546;8.644;2023-05-02T12:51:51;11.73;;;5.27;;
76846;SDS011;65813;49.546;8.644;2023-05-02T12:56:00;11.02;;;5.15;;
76846;SDS011;65813;49.546;8.644;2023-05-02T13:00:02;9.27;;;4.70;;
76846;SDS011;65813;49.546;8.644;2023-05-02T13:04:04;9.45;;;4.88;;
76846;SDS011;65813;49.546;8.644;2023-05-02T13:08:04;9.10;;;4.87;;
76846;SDS011;65813;49.546;8.644;2023-05-02T13:12:05;9.02;;;3.70;;
76846;SDS011;65813;49.546;8.644;2023-05-02T13:16:05;8.40;;;4.55;;
76846;SDS011;65813;49.546;8.644;2023-05-02T13:20:07;7.25;;;4.10;;
76846;SDS011;65813;49.546;8.644;2023-05-02T13:24:08;10.15;;;4.65;;
76846;SDS011;65813;49.546;8.644;2023-05-02T13:28:08;7.77;;;4.07;;
76846;SDS011;65813;49.546;8.644;2023-05-02T13:32:09;8.13;;;4.27;;
76846;SDS011;65813;49.546;8.644;2023-05-02T13:36:09;9.13;;;4.70;;
76846;SDS011;65813;49.546;8.644;2023-05-02T13:40:10;6.60;;;3.13;;
76846;SDS011;65813;49.546;8.644;2023-05-02T13:44:10;5.65;;;2.60;;
76846;SDS011;65813;49.546;8.644;2023-05-02T13:48:11;7.33;;;2.63;;
76846;SDS011;65813;49.546;8.644;2023-05-02T13:52:11;4.60;;;2.20;;
76846;SDS011;65813;49.546;8.644;2023-05-02T13:56:11;5.53;;;2.33;;
76846;SDS011;65813;49.546;8.644;2023-05-02T14:00:12;4.23;;;2.50;;
76846;SDS011;65813;49.546;8.644;2023-05-02T14:04:13;5.57;;;2.47;;
76846;SDS011;65813;49.546;8.644;2023-05-02T14:08:13;5.53;;;2.77;;
76846;SDS011;65813;49.546;8.644;2023-05-02T14:12:18;4.80;;;2.58;;
76846;SDS011;65813;49.546;8.644;2023-05-02T14:16:18;7.20;;;3.30;;
76846;SDS011;65813;49.546;8.644;2023-05-02T14:20:18;8.53;;;3.70;;
76846;SDS011;65813;49.546;8.644;2023-05-02T14:24:19;9.43;;;4.70;;
76846;SDS011;65813;49.546;8.644;2023-05-02T14:28:19;7.55;;;3.53;;
76846;SDS011;65813;49.546;8.644;2023-05-02T14:32:20;9.85;;;4.43;;
76846;SDS011;65813;49.546;8.644;2023-05-02T14:36:20;8.97;;;4.40;;
76846;SDS011;65813;49.546;8.644;2023-05-02T14:40:21;8.77;;;4.10;;
76846;SDS011;65813;49.546;8.644;2023-05-02T14:44:21;10.63;;;4.33;;
76846;SDS011;65813;49.546;8.644;2023-05-02T14:48:21;8.30;;;4.17;;
76846;SDS011;65813;49.546;8.644;2023-05-02T14:52:23;9.40;;;3.80;;
76846;SDS011;65813;49.546;8.644;2023-05-02T14:56:23;7.45;;;3.45;;
76846;SDS011;65813;49.546;8.644;2023-05-02T15:00:24;6.18;;;2.95;;
76846;SDS011;65813;49.546;8.644;2023-05-02T15:04:25;6.43;;;2.80;;
76846;SDS011;65813;49.546;8.644;2023-05-02T15:08:26;5.50;;;2.40;;
76846;SDS011;65813;49.546;8.644;2023-05-02T15:12:26;5.63;;;2.73;;
76846;SDS011;65813;49.546;8.644;2023-05-02T15:16:27;5.63;;;2.67;;
76846;SDS011;65813;49.546;8.644;2023-05-02T15:20:28;5.15;;;2.42;;
76846;SDS011;65813;49.546;8.644;2023-05-02T15:24:28;3.80;;;1.83;;
76846;SDS011;65813;49.546;8.644;2023-05-02T15:28:29;4.63;;;2.15;;
76846;SDS011;65813;49.546;8.644;2023-05-02T15:32:30;4.55;;;2.17;;
76846;SDS011;65813;49.546;8.644;2023-05-02T15:36:30;6.20;;;2.43;;
76846;SDS011;65813;49.546;8.644;2023-05-02T15:40:31;4.78;;;2.70;;
76846;SDS011;65813;49.546;8.644;2023-05-02T15:44:34;4.83;;;2.50;;
76846;SDS011;65813;49.546;8.644;2023-05-02T15:48:36;7.97;;;2.95;;
76846;SDS011;65813;49.546;8.644;2023-05-02T15:52:36;5.30;;;2.80;;
76846;SDS011;65813;49.546;8.644;2023-05-02T15:56:36;5.70;;;3.20;;
76846;SDS011;65813;49.546;8.644;2023-05-02T16:00:37;6.43;;;3.13;;
76846;SDS011;65813;49.546;8.644;2023-05-02T16:04:37;6.43;;;3.10;;
76846;SDS011;65813;49.546;8.644;2023-05-02T16:08:38;7.20;;;3.40;;
76846;SDS011;65813;49.546;8.644;2023-05-02T16:12:38;7.13;;;3.53;;
76846;SDS011;65813;49.546;8.644;2023-05-02T16:16:38;6.10;;;3.20;;
76846;SDS011;65813;49.546;8.644;2023-05-02T16:20:39;5.38;;;2.85;;
76846;SDS011;65813;49.546;8.644;2023-05-02T16:24:41;6.28;;;3.00;;
76846;SDS011;65813;49.546;8.644;2023-05-02T16:28:41;5.53;;;2.88;;
76846;SDS011;65813;49.546;8.644;2023-05-02T16:32:42;5.17;;;2.67;;
76846;SDS011;65813;49.546;8.644;2023-05-02T16:36:42;7.37;;;3.57;;
76846;SDS011;65813;49.546;8.644;2023-05-02T16:40:42;6.25;;;3.10;;
76846;SDS011;65813;49.546;8.644;2023-05-02T16:44:43;7.93;;;4.07;;
76846;SDS011;65813;49.546;8.644;2023-05-02T16:48:43;7.13;;;3.57;;
76846;SDS011;65813;49.546;8.644;2023-05-02T16:52:43;6.50;;;3.57;;
76846;SDS011;65813;49.546;8.644;2023-05-02T16:56:44;6.07;;;3.63;;
76846;SDS011;65813;49.546;8.644;2023-05-02T17:00:44;8.38;;;4.07;;
76846;SDS011;65813;49.546;8.644;2023-05-02T17:04:45;5.93;;;3.80;;
76846;SDS011;65813;49.546;8.644;2023-05-02T17:08:45;7.32;;;3.75;;
76846;SDS011;65813;49.546;8.644;2023-05-02T17:12:46;8.83;;;4.10;;
76846;SDS011;65813;49.546;8.644;2023-05-02T17:16:46;7.07;;;4.20;;
76846;SDS011;65813;49.546;8.644;2023-05-02T17:20:46;5.97;;;3.67;;
76846;SDS011;65813;49.546;8.644;2023-05-02T17:24:47;6.90;;;3.90;;
76846;SDS011;65813;49.546;8.644;2023-05-02T17:28:51;6.38;;;3.40;;
76846;SDS011;65813;49.546;8.644;2023-05-02T17:32:52;9.13;;;4.60;;
76846;SDS011;65813;49.546;8.644;2023-05-02T17:36:53;9.40;;;4.00;;
76846;SDS011;65813;49.546;8.644;2023-05-02T17:40:53;8.70;;;4.10;;
76846;SDS011;65813;49.546;8.644;2023-05-02T17:44:54;5.80;;;3.50;;
76846;SDS011;65813;49.546;8.644;2023-05-02T17:48:54;8.00;;;3.87;;
76846;SDS011;65813;49.546;8.644;2023-05-02T17:52:54;7.77;;;3.43;;
76846;SDS011;65813;49.546;8.644;2023-05-02T17:56:55;5.57;;;2.95;;
76846;SDS011;65813;49.546;8.644;2023-05-02T18:00:56;7.93;;;3.03;;
76846;SDS011;65813;49.546;8.644;2023-05-02T18:04:57;4.90;;;2.80;;
76846;SDS011;65813;49.546;8.644;2023-05-02T18:08:59;7.57;;;2.78;;
76846;SDS011;65813;49.546;8.644;2023-05-02T18:12:59;4.45;;;2.53;;
76846;SDS011;65813;49.546;8.644;2023-05-02T18:17:00;5.38;;;2.50;;
76846;SDS011;65813;49.546;8.644;2023-05-02T18:21:02;4.43;;;2.30;;
76846;SDS011;65813;49.546;8.644;2023-05-02T18:25:02;4.72;;;2.72;;
76846;SDS011;65813;49.546;8.644;2023-05-02T18:29:03;6.32;;;2.78;;
76846;SDS011;65813;49.546;8.644;2023-05-02T18:33:04;6.72;;;2.88;;
76846;SDS011;65813;49.546;8.644;2023-05-02T18:37:05;5.13;;;2.78;;
76846;SDS011;65813;49.546;8.644;2023-05-02T18:41:06;6.68;;;3.25;;
76846;SDS011;65813;49.546;8.644;2023-05-02T18:45:08;6.22;;;2.90;;
76846;SDS011;65813;49.546;8.644;2023-05-02T18:49:08;7.35;;;3.13;;
76846;SDS011;65813;49.546;8.644;2023-05-02T18:53:09;6.05;;;3.25;;
76846;SDS011;65813;49.546;8.644;2023-05-02T18:57:09;5.68;;;3.53;;
76846;SDS011;65813;49.546;8.644;2023-05-02T19:01:13;5.75;;;2.97;;
76846;SDS011;65813;49.546;8.644;2023-05-02T19:05:14;7.55;;;3.10;;
76846;SDS011;65813;49.546;8.644;2023-05-02T19:09:15;7.88;;;3.10;;
76846;SDS011;65813;49.546;8.644;2023-05-02T19:13:17;6.25;;;3.72;;
76846;SDS011;65813;49.546;8.644;2023-05-02T19:17:17;5.73;;;3.30;;
76846;SDS011;65813;49.546;8.644;2023-05-02T19:21:17;6.00;;;2.80;;
76846;SDS011;65813;49.546;8.644;2023-05-02T19:25:18;6.68;;;3.28;;
76846;SDS011;65813;49.546;8.644;2023-05-02T19:29:18;6.73;;;3.13;;
76846;SDS011;65813;49.546;8.644;2023-05-02T19:33:18;8.80;;;4.83;;
76846;SDS011;65813;49.546;8.644;2023-05-02T19:37:19;7.40;;;3.55;;
76846;SDS011;65813;49.546;8.644;2023-05-02T19:41:20;5.40;;;3.03;;
76846;SDS011;65813;49.546;8.644;2023-05-02T19:45:21;6.25;;;3.45;;
76846;SDS011;65813;49.546;8.644;2023-05-02T19:49:21;9.60;;;5.37;;
76846;SDS011;65813;49.546;8.644;2023-05-02T19:53:22;5.63;;;3.85;;
76846;SDS011;65813;49.546;8.644;2023-05-02T19:57:22;7.47;;;3.60;;
76846;SDS011;65813;49.546;8.644;2023-05-02T20:01:23;6.43;;;3.33;;
76846;SDS011;65813;49.546;8.644;2023-05-02T20:05:25;8.80;;;3.65;;
76846;SDS011;65813;49.546;8.644;2023-05-02T20:09:25;7.83;;;3.40;;
76846;SDS011;65813;49.546;8.644;2023-05-02T20:13:27;6.85;;;3.90;;
76846;SDS011;65813;49.546;8.644;2023-05-02T20:17:27;6.97;;;3.60;;
76846;SDS011;65813;49.546;8.644;2023-05-02T20:21:28;5.35;;;3.33;;
76846;SDS011;65813;49.546;8.644;2023-05-02T20:25:28;6.60;;;3.60;;
76846;SDS011;65813;49.546;8.644;2023-05-02T20:29:28;6.07;;;3.47;;
76846;SDS011;65813;49.546;8.644;2023-05-02T20:33:29;6.37;;;3.40;;
76846;SDS011;65813;49.546;8.644;2023-05-02T20:37:29;6.55;;;3.30;;
76846;SDS011;65813;49.546;8.644;2023-05-02T20:41:29;6.05;;;3.00;;
76846;SDS011;65813;49.546;8.644;2023-05-02T20:45:31;6.22;;;2.97;;
76846;SDS011;65813;49.546;8.644;2023-05-02T20:49:31;4.97;;;2.90;;
76846;SDS011;65813;49.546;8.644;2023-05-02T20:53:32;6.22;;;3.05;;
76846;SDS011;65813;49.546;8.644;2023-05-02T20:57:34;4.90;;;2.50;;
76846;SDS011;65813;49.546;8.644;2023-05-02T21:01:34;4.10;;;2.38;;
76846;SDS011;65813;49.546;8.644;2023-05-02T21:05:35;5.05;;;2.83;;
76846;SDS011;65813;49.546;8.644;2023-05-02T21:09:35;5.40;;;2.60;;
76846;SDS011;65813;49.546;8.644;2023-05-02T21:13:36;4.80;;;2.10;;
76846;SDS011;65813;49.546;8.644;2023-05-02T21:17:37;6.10;;;2.67;;
76846;SDS011;65813;49.546;8.644;2023-05-02T21:21:38;5.22;;;2.42;;
76846;SDS011;65813;49.546;8.644;2023-05-02T21:25:38;5.53;;;2.30;;
76846;SDS011;65813;49.546;8.644;2023-05-02T21:29:39;4.75;;;2.60;;
76846;SDS011;65813;49.546;8.644;2023-05-02T21:33:39;4.83;;;2.60;;
76846;SDS011;65813;49.546;8.644;2023-05-02T21:37:40;5.82;;;2.58;;
76846;SDS011;65813;49.546;8.644;2023-05-02T21:41:40;4.47;;;2.43;;
76846;SDS011;65813;49.546;8.644;2023-05-02T21:45:44;5.30;;;2.70;;
76846;SDS011;65813;49.546;8.644;2023-05-02T21:49:45;6.10;;;2.80;;
76846;SDS011;65813;49.546;8.644;2023-05-02T21:53:45;5.50;;;2.78;;
76846;SDS011;65813;49.546;8.644;2023-05-02T21:57:46;5.93;;;2.60;;
76846;SDS011;65813;49.546;8.644;2023-05-02T22:01:46;4.90;;;2.63;;
76846;SDS011;65813;49.546;8.644;2023-05-02T22:05:46;5.43;;;2.60;;
76846;SDS011;65813;49.546;8.644;2023-05-02T22:09:48;5.72;;;3.03;;
76846;SDS011;65813;49.546;8.644;2023-05-02T22:13:49;5.28;;;2.92;;
76846;SDS011;65813;49.546;8.644;2023-05-02T22:17:49;6.33;;;3.30;;
76846;SDS011;65813;49.546;8.644;2023-05-02T22:21:50;4.97;;;3.03;;
76846;SDS011;65813;49.546;8.644;2023-05-02T22:25:50;5.28;;;2.72;;
76846;SDS011;65813;49.546;8.644;2023-05-02T22:29:51;6.47;;;3.20;;
76846;SDS011;65813;49.546;8.644;2023-05-02T22:33:51;6.38;;;3.33;;
76846;SDS011;65813;49.546;8.644;2023-05-02T22:37:52;5.87;;;3.00;;
76846;SDS011;65813;49.546;8.644;2023-05-02T22:41:52;5.97;;;3.30;;
76846;SDS011;65813;49.546;8.644;2023-05-02T22:45:53;5.83;;;2.90;;
76846;SDS011;65813;49.546;8.644;2023-05-02T22:49:53;8.53;;;3.70;;
76846;SDS011;65813;49.546;8.644;2023-05-02T22:53:55;10.02;;;3.40;;
76846;SDS011;65813;49.546;8.644;2023-05-02T22:57:57;6.57;;;3.22;;
76846;SDS011;65813;49.546;8.644;2023-05-02T23:01:58;6.53;;;3.20;;
76846;SDS011;65813;49.546;8.644;2023-05-02T23:05:58;6.78;;;3.20;;
76846;SDS011;65813;49.546;8.644;2023-05-02T23:09:58;6.30;;;3.40;;
76846;SDS011;65813;49.546;8.644;2023-05-02T23:13:59;6.80;;;3.57;;
76846;SDS011;65813;49.546;8.644;2023-05-02T23:17:59;10.32;;;3.63;;
76846;SDS011;65813;49.546;8.644;2023-05-02T23:22:00;7.07;;;3.20;;
76846;SDS011;65813;49.546;8.644;2023-05-02T23:26:00;7.47;;;3.23;;
76846;SDS011;65813;49.546;8.644;2023-05-02T23:30:00;8.37;;;3.80;;
